This is the latest recevied weather packets stored in our database for station/object KB6CYS. If no packets are shown the sender has not sent any weather packets the latest 1 day(s).
| Time | Temp. | Humidity | Pressure | Rain* | Wind** | Luminosity | Snow |
|---|---|---|---|---|---|---|---|
| 1836274097 | 21.11° C | - | 1012.6 hPa | - | 1.34 m/s, 281° | - | - |
| 1778041524 | 16.11° C | - | 1015.3 hPa | - | 0.89 m/s, 209° | - | - |
| 1778041224 | 16.11° C | - | 1014.9 hPa | - | 0.89 m/s, 217° | - | - |
| 1778040023 | 16.67° C | - | 1015.3 hPa | - | 1.34 m/s, 205° | - | - |
| 1778039724 | 16.67° C | - | 1014.9 hPa | - | 1.34 m/s, 205° | - | - |
| 1778038524 | 17.22° C | - | 1014.6 hPa | - | 1.34 m/s, 220° | - | - |
| 1778037924 | 17.22° C | - | 1014.3 hPa | - | 1.79 m/s, 247° | - | - |
| 1778037324 | 17.22° C | - | 1013.6 hPa | - | 1.79 m/s, 281° | - | - |
| 1778031923 | 17.78° C | - | 1013.2 hPa | - | 1.79 m/s, 284° | - | - |
| 1778030128 | 18.89° C | - | 1013.2 hPa | - | 2.24 m/s, 288° | - | - |
| 1778029823 | 18.89° C | - | 1013.2 hPa | - | 2.24 m/s, 284° | - | - |
| 1778026824 | 18.89° C | - | 1013.6 hPa | - | 2.68 m/s, 286° | - | - |
| 1778022923 | 21.11° C | - | 1012.9 hPa | - | 3.58 m/s, 242° | - | - |
| 1778022624 | 21.67° C | - | 1012.6 hPa | - | 2.68 m/s, 202° | - | - |
| 1778021425 | 20.56° C | - | 1013.6 hPa | - | 2.68 m/s, 204° | - | - |
| 1778019024 | 20° C | - | 1012.9 hPa | - | 4.92 m/s, 232° | - | - |
| 1778018126 | 21.11° C | - | 1013.6 hPa | - | 4.02 m/s, 222° | - | - |
| 1778017524 | 21.11° C | - | 1013.6 hPa | - | 3.58 m/s, 208° | - | - |
| 1778014824 | 20° C | - | 1013.9 hPa | - | 3.58 m/s, 223° | - | - |
| 1778013024 | 20° C | - | 1013.6 hPa | - | 4.92 m/s, 227° | - | - |
| 1778011824 | 19.44° C | - | 1013.9 hPa | - | 3.13 m/s, 209° | - | - |
| 1778011223 | 18.89° C | - | 1014.3 hPa | - | 3.13 m/s, 198° | - | - |
| 1778009424 | 19.44° C | - | 1013.9 hPa | - | 3.58 m/s, 227° | - | - |
| 1778008224 | 18.89° C | - | 1013.9 hPa | - | 3.13 m/s, 196° | - | - |
| 1778006723 | 18.89° C | - | 1013.6 hPa | - | 3.13 m/s, 218° | - | - |
* Rain since midnight (hover to see other rain measurements)
** Current wind speed in m/s (hover to see current wind gust speed)